Geraldine, Alabama
Current Conditions -  °F | °C
As of 2:35 AM on Sunday 23 Nov 2014 (Local Time) from K8A0 Reporting Station
Overcast Overcast  
Wind Chill: 50°   Ceiling: 1600
Heat Index: 50°   Visibility: 10mi
Dew Point: 46°   Wind: 10mph
Humidity: 87%   Direction: 90°E
Pressure: 30.01"   Gusts: 17mph
Location:  34.35°N, 86°W
Report Text: K8A0 230835Z AUTO 09009G15KT 10SM OVC016 10/08 A3001 RMK AO2
Loading
Personal Weather Stations






























Interactive Weather Map New forecast layout! Learn more

10-Day Weather Forecast

Advertisements
Track Severe Weather on mobile